createdAt,value
2022-09-01T00:02:29.888Z,7.33
2022-09-01T00:05:22.953Z,6.93
2022-09-01T00:08:18.388Z,7.03
2022-09-01T00:11:11.222Z,6.80
2022-09-01T00:14:03.928Z,7.00
2022-09-01T00:16:56.016Z,6.97
2022-09-01T00:19:48.321Z,6.63
2022-09-01T00:22:40.490Z,6.67
2022-09-01T00:25:33.017Z,6.20
2022-09-01T00:28:29.237Z,5.83
2022-09-01T00:31:24.818Z,6.70
2022-09-01T00:34:17.222Z,6.30
2022-09-01T00:37:09.454Z,6.63
2022-09-01T00:40:03.024Z,6.27
2022-09-01T00:42:55.984Z,6.30
2022-09-01T00:45:48.789Z,6.00
2022-09-01T00:48:41.270Z,6.47
2022-09-01T00:51:36.426Z,6.20
2022-09-01T00:54:33.678Z,6.13
2022-09-01T00:57:27.297Z,6.27
2022-09-01T01:00:26.207Z,6.60
2022-09-01T01:03:18.819Z,5.80
2022-09-01T01:06:13.845Z,6.10
2022-09-01T01:09:05.686Z,5.53
2022-09-01T01:11:59.606Z,5.87
2022-09-01T01:14:52.995Z,6.70
2022-09-01T01:17:45.424Z,6.00
2022-09-01T01:20:55.402Z,6.47
2022-09-01T01:23:57.062Z,5.90
2022-09-01T01:26:49.608Z,6.50
2022-09-01T01:29:42.240Z,5.97
2022-09-01T01:32:36.309Z,6.00
2022-09-01T01:35:29.809Z,6.27
2022-09-01T01:38:23.507Z,5.80
2022-09-01T01:41:19.841Z,5.93
2022-09-01T01:44:13.431Z,5.73
2022-09-01T01:47:08.614Z,6.37
2022-09-01T01:50:09.719Z,6.53
2022-09-01T01:53:02.988Z,6.30
2022-09-01T01:56:05.085Z,5.87
2022-09-01T01:59:02.150Z,6.27
2022-09-01T02:01:55.058Z,5.70
2022-09-01T02:04:47.383Z,5.97
2022-09-01T02:07:43.916Z,6.43
2022-09-01T02:10:42.450Z,5.63
2022-09-01T02:13:36.246Z,6.43
2022-09-01T02:16:32.915Z,6.77
2022-09-01T02:19:26.841Z,6.50
2022-09-01T02:22:22.041Z,6.63
2022-09-01T02:25:16.821Z,6.30
2022-09-01T02:28:10.422Z,5.90
2022-09-01T02:31:04.285Z,6.00
2022-09-01T02:33:58.746Z,5.97
2022-09-01T02:36:55.123Z,6.20
2022-09-01T02:39:47.810Z,6.83
2022-09-01T02:42:43.527Z,6.03
2022-09-01T02:45:37.411Z,6.03
2022-09-01T02:48:38.029Z,5.87
2022-09-01T02:51:30.385Z,6.70
2022-09-01T02:54:25.873Z,6.60
2022-09-01T02:57:18.369Z,5.67
2022-09-01T03:00:21.230Z,5.97
2022-09-01T03:03:18.184Z,5.90
2022-09-01T03:06:14.985Z,6.37
2022-09-01T03:09:11.261Z,6.40
2022-09-01T03:12:04.319Z,6.70
2022-09-01T03:14:56.582Z,6.87
2022-09-01T03:17:49.028Z,6.37
2022-09-01T03:20:46.751Z,6.03
2022-09-01T03:23:39.522Z,6.37
2022-09-01T03:26:32.837Z,6.50
2022-09-01T03:29:24.994Z,6.43
2022-09-01T03:32:17.952Z,7.00
2022-09-01T03:35:12.075Z,6.47
2022-09-01T03:38:06.641Z,6.37
2022-09-01T03:41:03.944Z,6.30
2022-09-01T03:43:58.399Z,6.33
2022-09-01T03:46:53.674Z,6.57
2022-09-01T03:49:45.710Z,6.27
2022-09-01T03:52:41.632Z,6.53
2022-09-01T03:55:38.327Z,7.23
2022-09-01T03:58:31.549Z,6.60
2022-09-01T04:01:24.237Z,7.17
2022-09-01T04:04:17.262Z,6.53
2022-09-01T04:07:11.243Z,6.70
2022-09-01T04:10:12.917Z,7.33
2022-09-01T04:13:05.762Z,7.60
2022-09-01T04:15:58.463Z,6.73
2022-09-01T04:18:52.690Z,7.63
2022-09-01T04:21:45.709Z,7.10
2022-09-01T04:24:44.852Z,7.27
2022-09-01T04:27:40.772Z,6.83
2022-09-01T04:30:36.991Z,7.03
2022-09-01T04:33:37.388Z,7.37
2022-09-01T04:36:34.474Z,7.10
2022-09-01T04:39:28.718Z,6.77
2022-09-01T04:42:21.922Z,6.93
2022-09-01T04:45:20.441Z,7.30
2022-09-01T04:48:15.200Z,7.17
2022-09-01T04:51:13.505Z,7.57
2022-09-01T04:54:27.343Z,7.03
2022-09-01T04:57:19.458Z,6.90
2022-09-01T05:03:15.549Z,6.87
2022-09-01T05:06:34.773Z,7.73
2022-09-01T05:09:28.041Z,7.37
2022-09-01T05:12:48.805Z,7.83
2022-09-01T05:15:46.737Z,6.87
2022-09-01T05:18:41.000Z,7.27
2022-09-01T05:21:33.807Z,6.47
2022-09-01T05:24:39.860Z,6.90
2022-09-01T05:27:35.214Z,6.73
2022-09-01T05:30:28.835Z,7.10
2022-09-01T05:33:22.144Z,7.33
2022-09-01T05:36:18.294Z,7.40
2022-09-01T05:39:12.436Z,6.93
2022-09-01T05:42:08.615Z,6.80
2022-09-01T05:45:04.609Z,6.40
2022-09-01T05:47:57.410Z,6.70
2022-09-01T05:50:49.971Z,6.97
2022-09-01T05:59:26.856Z,6.30
2022-09-01T06:02:27.557Z,5.47
2022-09-01T06:05:21.468Z,5.57
2022-09-01T06:08:18.346Z,6.00
2022-09-01T06:11:14.262Z,6.00
2022-09-01T06:14:11.465Z,5.87
2022-09-01T06:17:04.153Z,5.33
2022-09-01T06:19:58.189Z,4.83
2022-09-01T06:22:52.721Z,5.27
2022-09-01T06:25:47.488Z,5.80
2022-09-01T06:28:41.498Z,5.47
2022-09-01T06:31:39.574Z,5.30
2022-09-01T06:34:36.346Z,5.53
2022-09-01T06:37:29.222Z,5.30
2022-09-01T06:40:25.604Z,5.10
2022-09-01T06:43:17.969Z,5.20
2022-09-01T06:46:14.365Z,4.90
2022-09-01T06:49:11.911Z,5.77
2022-09-01T06:52:05.816Z,5.83
2022-09-01T06:54:58.161Z,5.30
2022-09-01T06:58:09.768Z,5.00
2022-09-01T07:01:16.417Z,5.30
2022-09-01T07:04:13.319Z,4.87
2022-09-01T07:10:31.926Z,4.90
2022-09-01T07:13:34.385Z,5.00
2022-09-01T07:19:55.366Z,4.70
2022-09-01T07:23:05.806Z,5.10
2022-09-01T07:26:04.282Z,4.87
2022-09-01T07:35:33.278Z,4.23
2022-09-01T07:42:30.582Z,4.67
2022-09-01T07:42:31.320Z,5.27
2022-09-01T07:45:32.891Z,4.90
2022-09-01T07:49:01.173Z,4.37
2022-09-01T07:51:42.229Z,4.10
2022-09-01T07:54:37.497Z,4.50
2022-09-01T07:57:29.689Z,4.23
2022-09-01T08:00:24.590Z,4.57
2022-09-01T08:03:25.290Z,4.60
2022-09-01T08:06:20.806Z,4.00
2022-09-01T08:09:32.753Z,4.43
2022-09-01T08:12:29.205Z,4.40
2022-09-01T08:15:41.170Z,4.30
2022-09-01T08:18:51.812Z,4.63
2022-09-01T08:21:51.498Z,4.17
2022-09-01T08:25:00.383Z,4.17
2022-09-01T08:27:59.671Z,4.00
2022-09-01T08:30:53.009Z,3.97
2022-09-01T08:33:51.839Z,4.10
2022-09-01T08:36:44.690Z,4.70
2022-09-01T08:39:37.336Z,3.70
2022-09-01T08:42:45.960Z,3.77
2022-09-01T08:45:47.445Z,3.90
2022-09-01T08:52:09.977Z,4.17
2022-09-01T08:55:09.382Z,4.30
2022-09-01T08:58:05.919Z,4.00
2022-09-01T09:01:29.738Z,3.97
2022-09-01T09:04:39.341Z,3.50
2022-09-01T09:07:49.392Z,3.73
2022-09-01T09:10:52.622Z,3.70
2022-09-01T09:13:57.830Z,3.20
2022-09-01T09:16:54.469Z,3.80
2022-09-01T09:19:47.722Z,3.70
2022-09-01T09:22:41.842Z,3.23
2022-09-01T09:25:34.397Z,3.60
2022-09-01T09:28:26.074Z,3.80
2022-09-01T09:31:33.942Z,4.05
2022-09-01T09:34:37.080Z,4.23
2022-09-01T09:37:30.924Z,3.80
2022-09-01T09:40:27.251Z,3.83
2022-09-01T09:43:20.529Z,3.70
2022-09-01T09:46:27.748Z,3.57
2022-09-01T09:49:34.309Z,3.63
2022-09-01T09:52:27.978Z,4.05
2022-09-01T09:55:29.507Z,3.73
2022-09-01T10:01:32.757Z,3.70
2022-09-01T10:04:39.090Z,3.67
2022-09-01T10:07:34.603Z,3.43
2022-09-01T10:10:39.062Z,3.20
2022-09-01T10:13:36.096Z,3.53
2022-09-01T10:16:34.564Z,3.50
2022-09-01T10:19:35.574Z,3.33
2022-09-01T10:22:29.314Z,3.40
2022-09-01T10:25:25.079Z,3.30
2022-09-01T10:28:24.711Z,3.50
2022-09-01T10:31:19.195Z,3.43
2022-09-01T10:34:19.348Z,3.30
2022-09-01T10:40:43.905Z,3.17
2022-09-01T10:43:42.850Z,3.00
2022-09-01T10:46:50.976Z,3.50
2022-09-01T10:50:07.423Z,3.10
2022-09-01T10:53:35.128Z,2.90
2022-09-01T10:56:43.617Z,3.37
2022-09-01T10:59:40.269Z,3.37
2022-09-01T11:02:46.370Z,2.90
2022-09-01T11:06:13.177Z,3.33
2022-09-01T11:09:09.405Z,3.30
2022-09-01T11:12:29.606Z,2.90
2022-09-01T11:15:42.424Z,3.40
2022-09-01T11:18:38.242Z,3.03
2022-09-01T11:21:33.490Z,3.03
2022-09-01T11:24:58.077Z,3.30
2022-09-01T11:28:27.978Z,3.40
2022-09-01T11:31:26.559Z,3.03
2022-09-01T11:34:32.892Z,2.90
2022-09-01T11:37:28.401Z,3.03
2022-09-01T11:40:31.246Z,3.53
2022-09-01T11:43:27.345Z,3.17
2022-09-01T11:46:27.275Z,3.30
2022-09-01T11:49:34.055Z,2.90
2022-09-01T11:52:30.206Z,3.07
2022-09-01T11:55:34.467Z,2.90
2022-09-01T11:58:39.639Z,3.10
2022-09-01T12:01:37.582Z,3.00
2022-09-01T12:04:36.896Z,3.10
2022-09-01T12:07:36.610Z,3.07
2022-09-01T12:10:34.617Z,2.60
2022-09-01T12:13:28.637Z,2.87
2022-09-01T12:16:24.963Z,3.10
2022-09-01T12:19:29.792Z,3.60
2022-09-01T12:22:24.413Z,2.90
2022-09-01T12:25:24.395Z,2.97
2022-09-01T12:28:18.951Z,3.10
2022-09-01T12:31:16.362Z,3.27
2022-09-01T12:34:24.708Z,2.63
2022-09-01T12:37:24.972Z,3.00
2022-09-01T12:40:32.832Z,3.37
2022-09-01T12:43:40.414Z,3.10
2022-09-01T12:46:46.672Z,2.80
2022-09-01T12:49:50.086Z,3.20
2022-09-01T12:52:52.382Z,3.10
2022-09-01T12:56:14.626Z,3.20
2022-09-01T12:59:14.346Z,3.50
2022-09-01T13:02:29.825Z,3.33
2022-09-01T13:05:34.562Z,3.27
2022-09-01T13:08:33.281Z,3.30
2022-09-01T13:11:26.045Z,3.70
2022-09-01T13:14:19.162Z,3.20
2022-09-01T13:17:14.277Z,3.20
2022-09-01T13:20:12.298Z,3.17
2022-09-01T13:23:05.699Z,3.50
2022-09-01T13:25:59.297Z,2.93
2022-09-01T13:28:54.238Z,3.10
2022-09-01T13:34:59.385Z,3.50
2022-09-01T13:37:53.067Z,3.37
2022-09-01T13:40:47.284Z,3.00
2022-09-01T13:43:39.357Z,3.50
2022-09-01T13:46:34.202Z,3.30
2022-09-01T13:49:44.567Z,3.00
2022-09-01T13:52:39.709Z,3.47
2022-09-01T13:55:33.839Z,3.87
2022-09-01T13:58:27.259Z,3.30
2022-09-01T14:01:19.600Z,2.80
2022-09-01T14:04:12.971Z,3.40
2022-09-01T14:07:05.179Z,2.93
2022-09-01T14:09:57.289Z,3.23
2022-09-01T14:12:49.829Z,3.17
2022-09-01T14:15:42.655Z,3.10
2022-09-01T14:18:37.002Z,3.03
2022-09-01T14:21:29.198Z,3.10
2022-09-01T14:24:21.770Z,3.13
2022-09-01T14:27:14.841Z,2.83
2022-09-01T14:30:08.923Z,3.50
2022-09-01T14:33:01.856Z,3.23
2022-09-01T14:35:55.723Z,2.93
2022-09-01T14:38:50.481Z,3.13
2022-09-01T14:41:43.275Z,3.00
2022-09-01T14:44:37.774Z,3.10
2022-09-01T14:47:30.081Z,3.10
2022-09-01T14:50:23.545Z,3.23
2022-09-01T14:53:16.703Z,3.27
2022-09-01T14:56:10.006Z,3.37
2022-09-01T14:59:02.295Z,3.77
2022-09-01T15:01:54.047Z,3.00
2022-09-01T15:04:47.347Z,3.07
2022-09-01T15:07:39.998Z,3.20
2022-09-01T15:10:32.697Z,3.10
2022-09-01T15:13:26.067Z,3.27
2022-09-01T15:16:20.800Z,2.90
2022-09-01T15:19:14.203Z,3.03
2022-09-01T15:22:07.462Z,3.30
2022-09-01T15:25:01.114Z,3.27
2022-09-01T15:27:54.046Z,3.43
2022-09-01T15:30:46.929Z,3.60
2022-09-01T15:33:38.897Z,3.80
2022-09-01T15:36:32.951Z,3.03
2022-09-01T15:39:25.385Z,3.30
2022-09-01T15:42:28.709Z,3.10
2022-09-01T15:45:23.514Z,3.27
2022-09-01T15:48:16.448Z,3.03
2022-09-01T15:51:32.569Z,2.73
2022-09-01T15:54:30.215Z,3.10
2022-09-01T15:57:23.607Z,3.00
2022-09-01T16:00:19.100Z,3.30
2022-09-01T16:03:11.877Z,3.07
2022-09-01T16:06:06.545Z,3.23
2022-09-01T16:08:59.835Z,3.10
2022-09-01T16:11:52.192Z,3.27
2022-09-01T16:14:45.855Z,3.43
2022-09-01T16:17:53.204Z,2.90
2022-09-01T16:20:56.661Z,2.93
2022-09-01T16:23:51.399Z,3.50
2022-09-01T16:26:48.353Z,3.17
2022-09-01T16:29:49.165Z,3.10
2022-09-01T16:32:45.052Z,2.87
2022-09-01T16:35:48.096Z,3.03
2022-09-01T16:38:48.427Z,3.00
2022-09-01T16:41:55.406Z,3.57
2022-09-01T16:44:59.267Z,3.50
2022-09-01T16:48:03.230Z,3.03
2022-09-01T16:51:04.653Z,3.00
2022-09-01T16:54:12.280Z,3.05
2022-09-01T16:57:14.159Z,3.50
2022-09-01T17:00:14.283Z,3.50
2022-09-01T17:03:16.890Z,3.37
2022-09-01T17:06:17.274Z,3.23
2022-09-01T17:09:19.340Z,3.20
2022-09-01T17:12:27.962Z,3.27
2022-09-01T17:15:26.848Z,3.13
2022-09-01T17:18:30.663Z,3.60
2022-09-01T17:21:28.014Z,3.60
2022-09-01T17:24:33.885Z,3.53
2022-09-01T17:27:32.160Z,3.45
2022-09-01T17:30:24.596Z,4.67
2022-09-01T17:33:27.686Z,4.40
2022-09-01T17:36:26.064Z,5.60
2022-09-01T17:39:33.054Z,6.43
2022-09-01T17:42:36.964Z,5.83
2022-09-01T17:45:40.101Z,5.20
2022-09-01T17:48:45.495Z,4.87
2022-09-01T17:51:42.929Z,4.87
2022-09-01T17:54:43.794Z,5.03
2022-09-01T17:57:46.068Z,5.23
2022-09-01T18:00:45.847Z,5.20
2022-09-01T18:03:55.078Z,5.33
2022-09-01T18:06:56.367Z,4.60
2022-09-01T18:09:54.019Z,4.90
2022-09-01T18:13:00.297Z,5.20
2022-09-01T18:15:58.454Z,4.93
2022-09-01T18:18:54.474Z,4.57
2022-09-01T18:21:51.024Z,4.33
2022-09-01T18:24:52.241Z,5.37
2022-09-01T18:27:49.945Z,5.20
2022-09-01T18:30:53.480Z,5.37
2022-09-01T18:33:55.310Z,5.00
2022-09-01T18:36:55.738Z,7.78
2022-09-01T18:39:59.446Z,8.97
2022-09-01T18:43:01.798Z,6.97
2022-09-01T18:46:02.800Z,5.40
2022-09-01T18:49:08.107Z,5.07
2022-09-01T18:52:13.040Z,4.03
2022-09-01T18:55:12.038Z,4.67
2022-09-01T18:58:10.211Z,4.23
2022-09-01T19:01:07.386Z,3.93
2022-09-01T19:04:10.200Z,4.77
2022-09-01T19:07:10.677Z,4.83
2022-09-01T19:10:09.098Z,4.60
2022-09-01T19:13:10.862Z,4.63
2022-09-01T19:16:14.047Z,5.33
2022-09-01T19:19:19.973Z,4.93
2022-09-01T19:22:18.765Z,4.63
2022-09-01T19:25:32.098Z,4.33
2022-09-01T19:28:27.317Z,4.53
2022-09-01T19:31:26.220Z,4.13
2022-09-01T19:34:25.820Z,4.70
2022-09-01T19:37:19.360Z,4.40
2022-09-01T19:40:16.105Z,4.27
2022-09-01T19:43:19.570Z,4.57
2022-09-01T19:46:23.662Z,4.30
2022-09-01T19:49:29.143Z,4.27
2022-09-01T19:52:32.675Z,4.27
2022-09-01T19:55:31.851Z,4.27
2022-09-01T19:58:28.366Z,4.23
2022-09-01T20:01:28.302Z,4.60
2022-09-01T20:04:36.850Z,4.83
2022-09-01T20:07:33.246Z,4.37
2022-09-01T20:10:39.965Z,4.07
2022-09-01T20:14:01.487Z,4.80
2022-09-01T20:16:57.419Z,4.83
2022-09-01T20:19:55.457Z,5.60
2022-09-01T20:22:53.293Z,4.43
2022-09-01T20:25:51.527Z,4.70
2022-09-01T20:28:49.916Z,4.50
2022-09-01T20:31:46.239Z,4.50
2022-09-01T20:34:45.832Z,4.90
2022-09-01T20:37:42.717Z,4.20
2022-09-01T20:40:41.273Z,4.60
2022-09-01T20:43:38.940Z,4.53
2022-09-01T20:46:32.665Z,4.40
2022-09-01T20:49:25.376Z,3.87
2022-09-01T20:52:22.373Z,4.93
2022-09-01T20:55:18.935Z,4.73
2022-09-01T20:58:24.704Z,4.87
2022-09-01T21:01:28.037Z,4.43
2022-09-01T21:04:36.214Z,4.30
2022-09-01T21:07:37.018Z,4.17
2022-09-01T21:10:38.095Z,4.27
2022-09-01T21:13:46.309Z,4.25
2022-09-01T21:16:49.249Z,3.83
2022-09-01T21:20:01.499Z,4.27
2022-09-01T21:22:56.117Z,4.33
2022-09-01T21:25:49.188Z,4.17
2022-09-01T21:28:46.316Z,4.03
2022-09-01T21:31:40.957Z,3.97
2022-09-01T21:34:33.212Z,3.63
2022-09-01T21:37:26.127Z,4.90
2022-09-01T21:40:20.021Z,4.00
2022-09-01T21:43:18.250Z,4.30
2022-09-01T21:46:13.896Z,4.00
2022-09-01T21:49:07.468Z,4.13
2022-09-01T21:52:00.210Z,4.10
2022-09-01T21:54:52.792Z,3.50
2022-09-01T21:57:46.253Z,4.20
2022-09-01T22:00:40.701Z,3.80
2022-09-01T22:03:32.843Z,3.50
2022-09-01T22:06:25.650Z,3.93
2022-09-01T22:09:20.764Z,4.10
2022-09-01T22:12:14.578Z,4.10
2022-09-01T22:15:10.997Z,4.10
2022-09-01T22:18:03.052Z,3.90
2022-09-01T22:21:01.898Z,3.77
2022-09-01T22:23:54.429Z,3.77
2022-09-01T22:26:47.258Z,3.90
2022-09-01T22:29:39.362Z,4.27
2022-09-01T22:32:34.225Z,4.10
2022-09-01T22:35:26.874Z,3.67
2022-09-01T22:38:20.532Z,3.70
2022-09-01T22:41:12.720Z,3.87
2022-09-01T22:44:05.296Z,4.60
2022-09-01T22:46:57.351Z,4.27
2022-09-01T22:49:49.308Z,3.50
2022-09-01T22:52:42.184Z,3.97
2022-09-01T22:55:37.353Z,3.67
2022-09-01T22:58:29.063Z,3.63
2022-09-01T23:01:27.273Z,3.93
2022-09-01T23:04:20.093Z,3.80
2022-09-01T23:07:12.991Z,3.70
2022-09-01T23:10:06.752Z,3.73
2022-09-01T23:12:59.460Z,3.40
2022-09-01T23:15:51.851Z,3.50
2022-09-01T23:18:46.730Z,3.30
2022-09-01T23:21:40.541Z,3.20
2022-09-01T23:24:32.610Z,2.83
2022-09-01T23:27:24.259Z,3.00
2022-09-01T23:30:17.388Z,3.20
2022-09-01T23:33:09.819Z,2.93
2022-09-01T23:36:02.342Z,3.90
2022-09-01T23:38:55.811Z,2.70
2022-09-01T23:41:47.770Z,2.83
2022-09-01T23:44:39.914Z,3.27
2022-09-01T23:47:32.648Z,3.20
2022-09-01T23:50:25.096Z,3.10
2022-09-01T23:53:18.085Z,2.47
2022-09-01T23:56:14.612Z,3.03
2022-09-01T23:59:07.959Z,2.43
